Time;durP1;ratioP1;P1;durP2;ratioP2;P2;SDS_P1;SDS_P2;PMS_P1;PMS_P2;Temp;Humidity;BMP_temperature;BMP_pressure;BME280_temperature;BME280_humidity;BME280_pressure;Samples;Min_cycle;Max_cycle;Signal;HPM_P1;HPM_P2
2023/10/04 00:02:09;;;;;;;14.02;2.08;;;13.40;99.90;;;;;;5059681;28;20501;-66
2023/10/04 00:04:35;;;;;;;11.85;2.13;;;13.40;99.90;;;;;;5057924;28;20679;-66
2023/10/04 00:07:05;;;;;;;14.38;2.55;;;13.40;99.90;;;;;;5070044;28;20053;-66
2023/10/04 00:09:33;;;;;;;13.43;2.10;;;13.40;99.90;;;;;;5061820;28;20405;-66
2023/10/04 00:11:59;;;;;;;12.20;2.40;;;13.30;99.90;;;;;;5073703;28;20060;-66
2023/10/04 00:14:26;;;;;;;10.73;2.08;;;13.30;99.90;;;;;;5055693;28;20208;-66
2023/10/04 00:16:54;;;;;;;12.60;2.03;;;13.30;99.90;;;;;;5065751;28;20051;-66
2023/10/04 00:19:20;;;;;;;11.48;1.98;;;13.30;99.90;;;;;;5061227;28;20041;-67
2023/10/04 00:21:45;;;;;;;11.18;1.92;;;13.30;99.90;;;;;;5064458;28;20066;-66
2023/10/04 00:24:11;;;;;;;11.68;2.08;;;13.20;99.90;;;;;;5060044;28;20063;-66
2023/10/04 00:26:37;;;;;;;14.18;1.75;;;13.20;99.90;;;;;;5044800;28;20529;-66
2023/10/04 00:29:06;;;;;;;13.27;2.42;;;13.20;99.90;;;;;;5062798;28;20040;-66
2023/10/04 00:31:33;;;;;;;11.02;1.98;;;13.20;99.90;;;;;;5059567;28;20040;-66
2023/10/04 00:33:58;;;;;;;13.88;2.30;;;13.20;99.90;;;;;;5078539;28;20137;-66
2023/10/04 00:36:24;;;;;;;10.80;1.80;;;13.20;99.90;;;;;;5061952;28;20044;-66
2023/10/04 00:38:50;;;;;;;9.07;1.58;;;13.10;99.90;;;;;;5061873;28;20147;-66
2023/10/04 00:41:16;;;;;;;12.70;2.10;;;13.10;99.90;;;;;;5043816;28;20084;-66
2023/10/04 00:43:52;;;;;;;14.45;2.33;;;13.10;99.90;;;;;;5064975;28;20072;-66
2023/10/04 00:46:19;;;;;;;13.77;2.05;;;13.10;99.90;;;;;;5058713;28;20067;-67
2023/10/04 00:48:46;;;;;;;13.70;3.13;;;13.10;99.90;;;;;;5080024;28;20036;-66
2023/10/04 00:51:13;;;;;;;9.70;2.20;;;13.10;99.90;;;;;;5059489;28;20387;-66
2023/10/04 00:53:39;;;;;;;13.10;2.30;;;13.00;99.90;;;;;;5054177;28;20116;-65
2023/10/04 00:56:08;;;;;;;12.23;2.05;;;13.00;99.90;;;;;;5053568;28;20044;-66
2023/10/04 00:58:35;;;;;;;11.68;1.90;;;13.00;99.90;;;;;;5074214;28;20524;-66
2023/10/04 01:01:01;;;;;;;17.27;2.33;;;13.00;99.90;;;;;;5061097;28;20135;-66
2023/10/04 01:03:30;;;;;;;11.57;1.92;;;13.00;99.90;;;;;;5070793;28;20140;-66
2023/10/04 01:05:58;;;;;;;12.73;2.30;;;13.00;99.90;;;;;;5061680;28;20116;-66
2023/10/04 01:08:24;;;;;;;11.48;2.15;;;12.90;99.90;;;;;;5043271;28;20428;-66
2023/10/04 01:10:51;;;;;;;10.27;2.22;;;13.00;99.90;;;;;;5044508;28;20040;-66
2023/10/04 01:13:21;;;;;;;16.55;2.72;;;13.00;99.90;;;;;;5040155;28;20056;-65
2023/10/04 01:15:49;;;;;;;11.05;2.65;;;13.00;99.90;;;;;;5073598;28;20048;-65
2023/10/04 01:18:16;;;;;;;8.90;2.03;;;13.00;99.90;;;;;;5064633;28;20048;-66
2023/10/04 01:20:46;;;;;;;10.73;2.13;;;12.90;99.90;;;;;;5064003;28;20635;-65
2023/10/04 01:23:12;;;;;;;9.40;2.20;;;12.90;99.90;;;;;;5050399;28;20147;-66
2023/10/04 01:25:41;;;;;;;13.30;2.15;;;12.90;99.90;;;;;;5047880;28;20040;-66
2023/10/04 01:28:17;;;;;;;13.10;2.28;;;12.90;99.90;;;;;;5046019;28;20699;-65
2023/10/04 01:30:48;;;;;;;10.95;2.50;;;12.90;99.90;;;;;;5048511;28;20049;-66
2023/10/04 01:33:21;;;;;;;;;;;12.90;99.90;;;;;;5060037;28;20051;-66
2023/10/04 01:35:53;;;;;;;11.65;2.05;;;12.80;99.90;;;;;;5065839;28;20023;-66
2023/10/04 01:38:24;;;;;;;11.45;2.47;;;12.90;99.90;;;;;;5062506;28;20044;-66
2023/10/04 01:40:50;;;;;;;;;;;12.80;99.90;;;;;;5064654;28;20040;-65
2023/10/04 01:43:16;;;;;;;11.80;1.65;;;12.80;99.90;;;;;;5075408;28;19986;-65
2023/10/04 01:45:44;;;;;;;10.43;2.03;;;12.80;99.90;;;;;;5062273;28;20067;-66
2023/10/04 01:48:10;;;;;;;10.27;2.13;;;12.80;99.90;;;;;;5061512;28;20048;-66
2023/10/04 01:50:36;;;;;;;15.93;2.20;;;12.80;99.90;;;;;;5079699;28;20505;-66
2023/10/04 01:53:02;;;;;;;17.20;2.45;;;12.80;99.90;;;;;;5065674;28;20055;-66
2023/10/04 01:55:28;;;;;;;19.70;2.38;;;12.70;99.90;;;;;;5044075;28;20071;-66
2023/10/04 01:57:54;;;;;;;13.57;2.25;;;12.70;99.90;;;;;;5076854;28;20048;-66
2023/10/04 02:00:23;;;;;;;11.98;2.45;;;12.70;99.90;;;;;;5063680;28;20099;-66
2023/10/04 02:02:49;;;;;;;12.48;1.90;;;12.70;99.90;;;;;;5056180;28;20049;-66
2023/10/04 02:05:26;;;;;;;12.20;2.08;;;12.70;99.90;;;;;;5071544;28;20091;-66
2023/10/04 02:07:53;;;;;;;10.93;1.75;;;12.70;99.90;;;;;;5059817;28;20635;-66
2023/10/04 02:10:20;;;;;;;12.75;1.83;;;12.70;99.90;;;;;;5066005;28;20040;-66
2023/10/04 02:12:45;;;;;;;12.70;2.38;;;12.70;99.90;;;;;;5060963;28;20075;-66
2023/10/04 02:15:17;;;;;;;15.73;2.00;;;12.70;99.90;;;;;;5079858;28;20828;-66
2023/10/04 02:17:45;;;;;;;11.40;2.05;;;12.60;99.90;;;;;;5080829;28;20037;-66
2023/10/04 02:20:28;;;;;;;11.95;2.22;;;12.60;99.90;;;;;;5065204;28;20115;-66
2023/10/04 02:22:57;;;;;;;14.27;2.67;;;12.60;99.90;;;;;;5061256;28;21374;-66
2023/10/04 02:25:23;;;;;;;15.02;2.58;;;12.60;99.90;;;;;;5073458;28;20528;-66
2023/10/04 02:27:52;;;;;;;8.38;2.30;;;12.60;99.90;;;;;;5063401;28;20787;-66
2023/10/04 02:30:23;;;;;;;15.32;2.22;;;12.60;99.90;;;;;;5064722;28;20891;-66
2023/10/04 02:32:53;;;;;;;16.37;2.23;;;12.60;99.90;;;;;;5049358;28;20592;-66
2023/10/04 02:35:35;;;;;;;16.65;2.20;;;12.60;99.90;;;;;;5063312;28;20044;-66
2023/10/04 02:38:09;;;;;;;12.35;2.10;;;12.60;99.90;;;;;;5063628;28;20505;-66
2023/10/04 02:40:37;;;;;;;13.55;2.47;;;12.60;99.90;;;;;;5064590;28;20045;-66
2023/10/04 02:43:04;;;;;;;16.80;2.25;;;12.60;99.90;;;;;;5080834;28;20099;-66
2023/10/04 02:45:30;;;;;;;11.32;1.98;;;12.60;99.90;;;;;;5070856;28;20395;-66
2023/10/04 02:47:56;;;;;;;14.30;2.33;;;12.50;99.90;;;;;;5062921;28;20059;-65
2023/10/04 02:50:23;;;;;;;16.55;2.47;;;12.60;99.90;;;;;;5045725;28;20421;-65
2023/10/04 02:52:52;;;;;;;13.75;2.45;;;12.50;99.90;;;;;;5043996;28;20072;-66
2023/10/04 02:55:19;;;;;;;14.27;2.00;;;12.50;99.90;;;;;;5065841;28;20466;-66
2023/10/04 02:57:52;;;;;;;15.35;2.55;;;12.60;99.90;;;;;;5060378;28;20033;-66
2023/10/04 03:00:19;;;;;;;15.48;2.42;;;12.60;99.90;;;;;;5063205;28;20052;-66
2023/10/04 03:02:52;;;;;;;17.00;3.10;;;12.50;99.90;;;;;;5057517;28;20051;-66
2023/10/04 03:05:19;;;;;;;13.88;2.35;;;12.50;99.90;;;;;;5064737;28;20122;-66
2023/10/04 03:07:47;;;;;;;13.75;2.50;;;12.60;99.90;;;;;;5056813;28;20101;-66
2023/10/04 03:10:23;;;;;;;12.45;2.25;;;12.50;99.90;;;;;;5074170;28;20048;-66
2023/10/04 03:12:51;;;;;;;12.68;2.58;;;12.50;99.90;;;;;;5073378;28;20045;-66
2023/10/04 03:15:18;;;;;;;10.75;2.28;;;12.50;99.90;;;;;;5062120;28;20142;-66
2023/10/04 03:17:44;;;;;;;14.23;2.35;;;12.50;99.90;;;;;;5064847;28;20131;-66
2023/10/04 03:20:20;;;;;;;11.60;3.20;;;12.50;99.90;;;;;;5074121;28;20406;-66
2023/10/04 03:22:49;;;;;;;15.23;2.67;;;12.50;99.90;;;;;;5061883;28;20178;-66
2023/10/04 03:25:15;;;;;;;11.07;2.92;;;12.40;99.90;;;;;;5062613;28;20313;-66
2023/10/04 03:27:45;;;;;;;12.55;2.53;;;12.50;99.90;;;;;;5060831;28;20284;-66
2023/10/04 03:30:14;;;;;;;12.18;2.40;;;12.50;99.90;;;;;;5059260;28;20059;-66
2023/10/04 03:32:41;;;;;;;9.73;2.42;;;12.40;99.90;;;;;;5060673;28;20511;-66
2023/10/04 03:35:08;;;;;;;19.20;2.75;;;12.40;99.90;;;;;;5075749;28;20064;-66
2023/10/04 03:37:39;;;;;;;16.60;2.80;;;12.50;99.90;;;;;;5063700;28;20047;-66
2023/10/04 03:40:14;;;;;;;10.77;1.85;;;12.40;99.90;;;;;;5062164;28;20079;-66
2023/10/04 03:42:41;;;;;;;12.57;3.00;;;12.40;99.90;;;;;;5058869;28;20090;-66
2023/10/04 03:45:10;;;;;;;9.07;1.95;;;12.50;99.90;;;;;;5075445;28;20053;-66
2023/10/04 03:47:38;;;;;;;12.52;2.10;;;12.50;99.90;;;;;;5061180;28;20048;-66
2023/10/04 03:50:06;;;;;;;15.10;2.67;;;12.40;99.90;;;;;;5063899;28;20109;-66
2023/10/04 03:52:33;;;;;;;14.75;2.78;;;12.50;99.90;;;;;;5060416;28;20534;-66
2023/10/04 03:54:59;;;;;;;15.55;2.90;;;12.40;99.90;;;;;;5041720;28;20079;-65
2023/10/04 03:57:24;;;;;;;12.77;1.92;;;12.40;99.90;;;;;;5075309;28;20434;-66
2023/10/04 03:59:51;;;;;;;14.25;2.80;;;12.40;99.90;;;;;;5060941;28;20446;-66
2023/10/04 04:02:16;;;;;;;11.88;2.28;;;12.40;99.90;;;;;;5061320;28;20040;-65
2023/10/04 04:04:43;;;;;;;13.30;2.20;;;12.40;99.90;;;;;;5054315;28;20042;-66
2023/10/04 04:07:10;;;;;;;14.15;2.20;;;12.40;99.90;;;;;;5055944;28;20051;-65
2023/10/04 04:09:36;;;;;;;14.43;2.50;;;12.40;99.90;;;;;;5058166;28;20117;-66
2023/10/04 04:12:02;;;;;;;11.77;2.40;;;12.40;99.90;;;;;;5042852;28;20057;-66
2023/10/04 04:14:29;;;;;;;15.05;2.30;;;12.40;99.90;;;;;;5060515;28;20041;-65
2023/10/04 04:16:55;;;;;;;10.02;2.50;;;12.40;99.90;;;;;;5063576;28;20057;-66
2023/10/04 04:19:23;;;;;;;12.57;2.50;;;12.30;99.90;;;;;;5038154;28;20379;-65
2023/10/04 04:21:49;;;;;;;12.02;2.28;;;12.40;99.90;;;;;;5056033;28;20408;-66
2023/10/04 04:24:15;;;;;;;11.75;2.30;;;12.30;99.90;;;;;;5056663;28;20436;-66
2023/10/04 04:26:41;;;;;;;12.77;3.00;;;12.30;99.90;;;;;;5057584;28;20051;-66
2023/10/04 04:29:09;;;;;;;9.05;2.35;;;12.30;99.90;;;;;;5039008;28;20684;-66
2023/10/04 04:31:36;;;;;;;12.45;2.10;;;12.50;99.90;;;;;;5053742;28;20057;-66
2023/10/04 04:34:03;;;;;;;13.95;2.78;;;12.30;99.90;;;;;;5052679;28;20080;-67
2023/10/04 04:36:32;;;;;;;12.00;2.58;;;12.30;99.90;;;;;;5041496;28;20043;-66
2023/10/04 04:38:58;;;;;;;10.98;2.50;;;12.20;99.90;;;;;;5056763;28;20118;-66
2023/10/04 04:41:27;;;;;;;12.52;2.60;;;12.20;99.90;;;;;;5059583;28;20386;-66
2023/10/04 04:43:54;;;;;;;10.98;2.13;;;12.30;99.90;;;;;;5053490;28;20052;-67
2023/10/04 04:46:22;;;;;;;10.85;2.03;;;12.20;99.90;;;;;;5043136;28;20047;-66
2023/10/04 04:48:49;;;;;;;11.20;2.13;;;12.20;99.90;;;;;;5052853;28;20603;-66
2023/10/04 04:51:15;;;;;;;12.10;1.77;;;12.20;99.90;;;;;;5044247;28;20045;-66
2023/10/04 04:53:42;;;;;;;10.38;2.15;;;12.20;99.90;;;;;;5058420;28;20041;-66
2023/10/04 04:56:18;;;;;;;11.30;2.35;;;12.20;99.90;;;;;;5041698;28;20179;-66
2023/10/04 04:58:49;;;;;;;11.98;2.22;;;12.20;99.90;;;;;;5060088;28;20040;-66
2023/10/04 05:01:18;;;;;;;15.82;2.92;;;12.20;99.90;;;;;;5061528;28;21622;-66
2023/10/04 05:03:50;;;;;;;15.73;2.55;;;12.20;99.90;;;;;;5054138;28;20037;-66
2023/10/04 05:06:25;;;;;;;14.80;2.47;;;12.20;99.90;;;;;;5066605;28;20048;-66
2023/10/04 05:08:54;;;;;;;10.75;2.03;;;12.20;99.90;;;;;;5068876;28;20042;-66
2023/10/04 05:11:20;;;;;;;11.02;2.00;;;12.20;99.90;;;;;;5058961;28;20037;-66
2023/10/04 05:13:46;;;;;;;17.30;2.33;;;12.30;99.90;;;;;;5041526;28;20032;-66
2023/10/04 05:16:12;;;;;;;12.95;2.13;;;12.20;99.90;;;;;;5047357;28;20036;-66
2023/10/04 05:18:39;;;;;;;13.25;2.17;;;12.20;99.90;;;;;;5057083;28;20036;-66
2023/10/04 05:21:05;;;;;;;11.07;2.50;;;12.20;99.90;;;;;;5073150;28;20053;-65
2023/10/04 05:23:31;;;;;;;9.95;2.22;;;12.20;99.90;;;;;;5070660;28;20626;-66
2023/10/04 05:25:59;;;;;;;12.13;2.10;;;12.20;99.90;;;;;;5037587;28;20098;-65
2023/10/04 05:28:25;;;;;;;10.68;2.60;;;12.20;99.90;;;;;;5049044;28;20060;-66
2023/10/04 05:30:51;;;;;;;13.35;2.50;;;12.20;99.90;;;;;;5050227;28;20091;-65
2023/10/04 05:33:19;;;;;;;11.73;2.65;;;12.20;99.90;;;;;;5050025;28;20199;-66
2023/10/04 05:35:48;;;;;;;12.93;3.13;;;12.20;99.90;;;;;;5054100;28;20059;-66
2023/10/04 05:38:16;;;;;;;13.00;2.30;;;12.20;99.90;;;;;;5057650;28;20091;-66
2023/10/04 05:40:43;;;;;;;13.63;2.58;;;12.20;99.90;;;;;;5069649;28;20170;-66
2023/10/04 05:43:10;;;;;;;15.75;2.75;;;12.20;99.90;;;;;;5055333;28;20056;-66
2023/10/04 05:45:36;;;;;;;13.90;2.90;;;12.10;99.90;;;;;;5051083;28;20053;-66
2023/10/04 05:48:06;;;;;;;10.57;2.25;;;12.20;99.90;;;;;;5047483;28;20048;-66
2023/10/04 05:50:35;;;;;;;10.18;2.25;;;12.20;99.90;;;;;;5049086;28;20044;-65
2023/10/04 05:53:07;;;;;;;12.00;2.17;;;12.20;99.90;;;;;;5059214;28;20521;-66
2023/10/04 05:55:37;;;;;;;11.35;2.75;;;12.20;99.90;;;;;;5055945;28;20773;-66
2023/10/04 05:58:10;;;;;;;12.13;2.67;;;12.20;99.90;;;;;;5060367;28;20060;-66
2023/10/04 06:00:42;;;;;;;11.50;2.53;;;12.20;99.90;;;;;;5053507;28;20052;-66
2023/10/04 06:03:12;;;;;;;13.35;2.60;;;12.10;99.90;;;;;;5056527;28;20052;-66
2023/10/04 06:05:39;;;;;;;10.40;2.58;;;12.20;99.90;;;;;;5059761;28;20041;-66
2023/10/04 06:08:10;;;;;;;15.82;3.53;;;12.10;99.90;;;;;;5055296;28;20086;-66
2023/10/04 06:10:36;;;;;;;12.87;2.67;;;12.10;99.90;;;;;;5051591;28;20083;-66
2023/10/04 06:13:02;;;;;;;15.07;2.92;;;12.10;99.90;;;;;;5049616;28;20389;-66
2023/10/04 06:15:30;;;;;;;13.73;2.42;;;12.10;99.90;;;;;;5034980;28;20071;-65
2023/10/04 06:17:57;;;;;;;16.25;2.97;;;12.10;99.90;;;;;;5060853;28;20064;-66
2023/10/04 06:20:24;;;;;;;14.73;2.95;;;12.20;99.90;;;;;;5039748;28;20052;-67
2023/10/04 06:22:55;;;;;;;13.57;2.95;;;12.10;99.90;;;;;;5060621;28;20037;-66
2023/10/04 06:25:22;;;;;;;13.63;3.03;;;12.20;99.90;;;;;;5058962;28;20570;-66
2023/10/04 06:27:52;;;;;;;11.13;2.88;;;12.20;99.90;;;;;;5055818;28;20041;-66
2023/10/04 06:30:23;;;;;;;13.18;2.67;;;12.20;99.90;;;;;;5027048;28;20049;-65
2023/10/04 06:32:50;;;;;;;15.68;3.08;;;12.20;99.90;;;;;;5040209;28;20072;-66
2023/10/04 06:35:17;;;;;;;12.32;2.60;;;12.20;99.90;;;;;;5025847;28;20048;-66
2023/10/04 06:37:44;;;;;;;12.02;2.72;;;12.20;99.90;;;;;;5037938;28;20111;-66
2023/10/04 06:40:15;;;;;;;14.02;2.70;;;12.20;99.90;;;;;;5034558;28;20056;-66
2023/10/04 06:42:43;;;;;;;22.15;4.13;;;12.20;99.90;;;;;;5024982;28;20920;-66
2023/10/04 06:45:12;;;;;;;16.15;3.40;;;12.30;99.90;;;;;;5055849;28;20084;-65
2023/10/04 06:47:41;;;;;;;15.85;3.17;;;12.30;99.90;;;;;;5052727;28;20044;-66
2023/10/04 06:50:07;;;;;;;15.07;3.30;;;12.30;99.90;;;;;;5069337;28;20074;-66
2023/10/04 06:52:35;;;;;;;9.25;2.30;;;12.30;99.90;;;;;;5047989;28;20048;-65
2023/10/04 06:55:02;;;;;;;15.70;3.85;;;12.30;99.90;;;;;;5052089;28;20047;-66
2023/10/04 06:57:27;;;;;;;14.38;3.20;;;12.40;99.90;;;;;;5044894;28;20079;-65
2023/10/04 06:59:53;;;;;;;17.10;4.15;;;12.50;99.90;;;;;;5049259;28;20438;-66
2023/10/04 07:02:19;;;;;;;16.00;3.80;;;12.50;99.90;;;;;;5059210;28;20040;-66
2023/10/04 07:04:48;;;;;;;15.90;3.10;;;12.50;99.90;;;;;;5062470;28;20517;-66
2023/10/04 07:07:14;;;;;;;13.25;3.40;;;12.60;99.90;;;;;;5060330;28;20394;-66
2023/10/04 07:09:39;;;;;;;18.48;3.58;;;12.70;99.90;;;;;;5060445;28;20090;-65
2023/10/04 07:12:05;;;;;;;17.27;4.10;;;12.70;99.90;;;;;;5053729;28;20048;-66
2023/10/04 07:14:31;;;;;;;15.68;3.50;;;12.80;99.90;;;;;;5061153;28;20044;-66
2023/10/04 07:16:57;;;;;;;12.70;3.40;;;12.90;99.90;;;;;;5059289;28;20121;-65
2023/10/04 07:19:23;;;;;;;16.13;3.30;;;12.90;99.90;;;;;;5060957;28;20402;-65
2023/10/04 07:21:49;;;;;;;16.23;3.65;;;13.00;99.90;;;;;;5047659;28;20044;-66
2023/10/04 07:24:14;;;;;;;13.68;3.40;;;13.10;99.90;;;;;;5060219;28;20497;-66
2023/10/04 07:26:41;;;;;;;14.80;2.92;;;13.20;99.90;;;;;;5059396;28;20055;-66
2023/10/04 07:29:07;;;;;;;18.98;4.03;;;13.30;99.90;;;;;;5061179;28;20075;-66
2023/10/04 07:31:34;;;;;;;15.15;3.63;;;13.40;99.90;;;;;;5062345;28;20469;-66
2023/10/04 07:34:00;;;;;;;17.48;4.25;;;13.50;99.90;;;;;;5055757;28;20068;-66
2023/10/04 07:36:26;;;;;;;13.63;3.70;;;13.50;99.90;;;;;;5065557;28;20943;-66
2023/10/04 07:38:52;;;;;;;15.65;3.25;;;13.60;99.90;;;;;;5055947;28;20425;-66
2023/10/04 07:41:17;;;;;;;15.68;3.28;;;13.70;99.90;;;;;;5065625;28;20048;-66
2023/10/04 07:43:43;;;;;;;16.80;3.67;;;13.80;99.90;;;;;;5063371;28;20656;-66
2023/10/04 07:46:09;;;;;;;14.73;3.50;;;13.90;99.90;;;;;;5076577;28;20521;-66
2023/10/04 07:48:35;;;;;;;14.30;3.35;;;13.90;99.90;;;;;;5059249;28;20175;-66
2023/10/04 07:51:01;;;;;;;14.95;3.63;;;14.00;99.90;;;;;;5043330;28;20052;-66
2023/10/04 07:53:27;;;;;;;14.57;3.50;;;14.10;99.90;;;;;;5065155;28;20041;-66
2023/10/04 07:55:53;;;;;;;11.98;3.15;;;14.20;99.90;;;;;;5061128;28;20040;-65
2023/10/04 07:58:19;;;;;;;14.82;3.50;;;14.30;99.90;;;;;;5062978;28;20044;-66
2023/10/04 08:00:45;;;;;;;13.10;3.50;;;14.30;99.90;;;;;;5062804;28;20052;-66
2023/10/04 08:03:10;;;;;;;16.73;3.72;;;14.40;99.90;;;;;;5071802;28;20395;-65
2023/10/04 08:05:38;;;;;;;14.02;3.42;;;14.50;99.90;;;;;;5045764;28;20053;-66
2023/10/04 08:08:05;;;;;;;17.02;4.00;;;14.50;99.90;;;;;;5063189;28;20049;-66
2023/10/04 08:10:35;;;;;;;15.55;3.70;;;14.60;99.90;;;;;;5062930;28;20405;-66
2023/10/04 08:13:03;;;;;;;15.75;3.97;;;14.60;99.90;;;;;;5063599;28;20048;-66
2023/10/04 08:15:31;;;;;;;14.05;4.13;;;14.70;99.90;;;;;;5062385;28;20593;-66
2023/10/04 08:17:58;;;;;;;13.40;3.70;;;14.70;99.90;;;;;;5064066;28;20547;-65
2023/10/04 08:20:28;;;;;;;17.00;3.92;;;14.70;99.90;;;;;;5074314;28;20052;-66
2023/10/04 08:22:55;;;;;;;18.63;3.90;;;14.80;99.90;;;;;;5063830;28;22297;-65
2023/10/04 08:25:27;;;;;;;14.23;3.80;;;14.80;99.90;;;;;;5061630;28;20052;-65
2023/10/04 08:27:53;;;;;;;17.38;4.72;;;14.90;99.90;;;;;;5047411;28;20040;-66
2023/10/04 08:30:20;;;;;;;14.43;3.75;;;15.00;99.90;;;;;;5063822;28;20082;-65
2023/10/04 08:32:48;;;;;;;22.65;4.57;;;15.00;99.90;;;;;;5064593;28;20047;-66
2023/10/04 08:35:21;;;;;;;23.20;4.72;;;15.00;99.90;;;;;;5063578;28;20126;-66
2023/10/04 08:37:48;;;;;;;12.75;3.58;;;15.00;99.90;;;;;;5063424;28;20044;-66
2023/10/04 08:40:18;;;;;;;16.05;3.80;;;15.10;99.90;;;;;;5064090;28;20127;-66
2023/10/04 08:42:45;;;;;;;13.63;3.67;;;15.10;99.90;;;;;;5065932;28;20045;-66
2023/10/04 08:45:11;;;;;;;12.93;4.15;;;15.10;99.90;;;;;;5063605;28;20052;-65
2023/10/04 08:47:38;;;;;;;17.45;3.70;;;15.20;99.90;;;;;;5048016;28;20074;-67
2023/10/04 08:50:12;;;;;;;12.60;4.00;;;15.30;99.90;;;;;;5063874;28;20493;-66
2023/10/04 08:52:45;;;;;;;21.95;4.40;;;15.40;99.90;;;;;;5048988;28;20056;-66
2023/10/04 08:55:17;;;;;;;14.70;4.13;;;15.40;99.90;;;;;;5066141;28;20425;-66
2023/10/04 08:57:43;;;;;;;15.07;4.00;;;15.40;99.90;;;;;;5048364;28;20520;-66
2023/10/04 09:00:14;;;;;;;18.13;3.90;;;15.50;99.90;;;;;;5066116;28;20125;-65
2023/10/04 09:02:45;;;;;;;13.95;3.60;;;15.50;99.90;;;;;;5068748;28;20059;-66
2023/10/04 09:05:16;;;;;;;16.48;4.28;;;15.60;99.90;;;;;;5066786;28;20048;-66
2023/10/04 09:07:46;;;;;;;;;;;15.60;99.90;;;;;;5064024;28;20052;-65
2023/10/04 09:10:16;;;;;;;17.40;4.53;;;15.70;99.90;;;;;;5066123;28;20275;-65
2023/10/04 09:12:43;;;;;;;16.10;3.80;;;15.80;99.90;;;;;;5066040;28;20041;-67
2023/10/04 09:15:11;;;;;;;13.60;3.92;;;15.80;99.90;;;;;;5066272;28;20058;-66
2023/10/04 09:17:56;;;;;;;16.17;3.88;;;15.80;99.90;;;;;;5064242;28;20119;-66
2023/10/04 09:20:29;;;;;;;15.80;4.20;;;15.80;99.90;;;;;;5080764;28;20410;-65
2023/10/04 09:22:56;;;;;;;13.63;3.53;;;15.80;99.90;;;;;;5066018;28;20118;-65
2023/10/04 09:25:22;;;;;;;15.77;4.18;;;15.90;99.90;;;;;;5058502;28;20632;-65
2023/10/04 09:27:55;;;;;;;18.45;4.40;;;15.90;99.90;;;;;;5065975;28;20419;-65
2023/10/04 09:30:24;;;;;;;13.95;3.55;;;15.90;99.90;;;;;;5063629;28;20045;-66
2023/10/04 09:32:51;;;;;;;13.82;4.00;;;16.00;99.90;;;;;;5063861;28;20047;-67
2023/10/04 09:35:20;;;;;;;16.60;4.05;;;16.00;99.90;;;;;;5063920;28;20498;-66
2023/10/04 09:37:50;;;;;;;13.68;4.00;;;16.00;99.90;;;;;;5051440;28;20040;-66
2023/10/04 09:40:17;;;;;;;12.20;3.47;;;16.00;99.90;;;;;;5070086;28;20036;-66
2023/10/04 09:42:52;;;;;;;14.95;4.07;;;16.10;99.90;;;;;;5068616;28;20690;-65
2023/10/04 09:45:23;;;;;;;13.95;4.07;;;16.10;99.90;;;;;;5068855;28;20495;-66
2023/10/04 09:47:53;;;;;;;14.68;3.80;;;16.10;99.90;;;;;;5068000;28;20036;-66
2023/10/04 09:50:28;;;;;;;14.40;3.65;;;16.10;99.90;;;;;;5069884;28;20047;-65
2023/10/04 09:52:54;;;;;;;16.83;4.22;;;16.20;99.90;;;;;;5068956;28;20048;-65
2023/10/04 09:55:23;;;;;;;14.60;4.30;;;16.30;99.90;;;;;;5068602;28;20106;-65
2023/10/04 09:57:49;;;;;;;18.90;4.25;;;16.30;99.90;;;;;;5067623;28;20051;-65
2023/10/04 10:00:18;;;;;;;13.75;3.95;;;16.40;99.90;;;;;;5068419;28;20139;-66
2023/10/04 10:02:51;;;;;;;14.18;4.55;;;16.40;99.90;;;;;;5065129;28;20079;-66
2023/10/04 10:05:34;;;;;;;14.98;3.70;;;16.50;99.90;;;;;;5066345;28;20052;-65
2023/10/04 10:08:06;;;;;;;13.38;4.40;;;16.50;99.90;;;;;;5066436;28;20458;-66
2023/10/04 10:10:37;;;;;;;12.02;3.92;;;16.50;99.90;;;;;;5048541;28;20127;-65
2023/10/04 10:13:05;;;;;;;12.90;4.45;;;16.60;99.90;;;;;;5066174;28;20044;-65
2023/10/04 10:15:31;;;;;;;13.48;3.90;;;16.50;99.90;;;;;;5066114;28;20045;-65
2023/10/04 10:17:59;;;;;;;13.45;3.92;;;16.50;99.90;;;;;;5060774;28;20044;-65
2023/10/04 10:20:25;;;;;;;13.77;4.57;;;16.50;99.90;;;;;;5067298;28;20093;-66
2023/10/04 10:22:57;;;;;;;15.38;3.80;;;16.40;99.90;;;;;;5066509;28;20028;-66
2023/10/04 10:25:25;;;;;;;10.20;3.53;;;16.50;99.90;;;;;;5065961;28;20093;-66
2023/10/04 10:27:56;;;;;;;9.43;3.60;;;16.50;99.90;;;;;;5066329;28;20055;-66
2023/10/04 10:30:23;;;;;;;15.63;3.97;;;16.50;99.90;;;;;;5066256;28;20051;-66
2023/10/04 10:32:55;;;;;;;14.45;4.20;;;16.50;99.90;;;;;;5069497;28;20044;-66
2023/10/04 10:35:46;;;;;;;18.50;4.35;;;16.50;99.90;;;;;;5067194;28;20047;-66
2023/10/04 10:38:31;;;;;;;18.80;5.03;;;16.50;99.90;;;;;;5064267;28;20105;-66
2023/10/04 10:40:56;;;;;;;11.07;3.60;;;16.50;99.90;;;;;;5065570;28;20079;-67
2023/10/04 10:43:22;;;;;;;16.75;4.55;;;16.50;99.90;;;;;;5067229;28;20453;-67
2023/10/04 10:45:48;;;;;;;13.02;3.97;;;16.40;99.90;;;;;;5066443;28;20028;-67
2023/10/04 10:48:14;;;;;;;16.38;4.07;;;16.50;99.90;;;;;;5064960;28;20052;-67
2023/10/04 10:50:41;;;;;;;15.43;4.45;;;16.50;99.90;;;;;;5051482;28;20040;-67
2023/10/04 10:53:11;;;;;;;16.35;4.45;;;16.50;99.90;;;;;;5067655;28;20116;-67
2023/10/04 10:55:41;;;;;;;16.60;5.47;;;16.50;99.90;;;;;;5084933;28;20417;-67
2023/10/04 10:58:07;;;;;;;17.02;4.65;;;16.50;99.90;;;;;;5068054;28;20051;-67
2023/10/04 11:00:36;;;;;;;16.13;4.53;;;16.50;99.90;;;;;;5068266;28;20032;-66
2023/10/04 11:03:09;;;;;;;17.27;4.88;;;16.50;99.90;;;;;;5066658;28;20041;-66
2023/10/04 11:05:35;;;;;;;17.02;4.53;;;16.50;99.90;;;;;;5050630;28;20048;-66
2023/10/04 11:08:06;;;;;;;14.82;4.43;;;16.50;99.90;;;;;;5066202;28;20052;-67
2023/10/04 11:10:34;;;;;;;;;;;16.50;99.90;;;;;;5067358;28;20503;-66
2023/10/04 11:13:04;;;;;;;11.55;4.03;;;16.50;99.90;;;;;;5067615;28;20424;-67
2023/10/04 11:15:30;;;;;;;16.45;4.32;;;16.50;99.90;;;;;;5066606;28;20036;-66
2023/10/04 11:17:56;;;;;;;18.20;4.80;;;16.50;99.90;;;;;;5065662;28;20119;-66
2023/10/04 11:20:22;;;;;;;15.75;4.55;;;16.50;99.90;;;;;;5066641;28;20264;-66
2023/10/04 11:22:49;;;;;;;17.88;4.80;;;16.50;99.90;;;;;;5066733;28;20122;-66
2023/10/04 11:25:16;;;;;;;16.73;4.70;;;16.50;99.90;;;;;;5068168;28;20062;-66
2023/10/04 11:27:44;;;;;;;14.98;4.82;;;16.50;99.90;;;;;;5061147;28;20041;-66
2023/10/04 11:30:13;;;;;;;18.63;5.22;;;16.50;99.90;;;;;;5065175;28;20048;-66
2023/10/04 11:32:40;;;;;;;14.55;4.03;;;16.50;99.90;;;;;;5048142;28;20044;-66
2023/10/04 11:35:09;;;;;;;15.45;4.82;;;16.50;99.90;;;;;;5064746;28;20699;-66
2023/10/04 11:37:42;;;;;;;13.25;4.50;;;16.50;99.90;;;;;;5045404;28;20041;-67
2023/10/04 11:40:12;;;;;;;14.73;4.95;;;16.50;99.90;;;;;;5046182;28;20163;-66
2023/10/04 11:42:40;;;;;;;14.30;4.65;;;16.50;99.90;;;;;;5064966;28;20036;-67
2023/10/04 11:45:23;;;;;;;14.50;3.83;;;16.50;99.90;;;;;;5062587;28;20449;-66
2023/10/04 11:48:01;;;;;;;15.20;4.10;;;16.60;99.90;;;;;;5063782;28;20509;-67
2023/10/04 11:50:48;;;;;;;18.80;4.32;;;16.50;99.90;;;;;;5061048;28;20702;-66
2023/10/04 11:53:32;;;;;;;14.43;4.40;;;16.60;99.90;;;;;;5072316;28;20499;-67
2023/10/04 11:56:06;;;;;;;14.05;4.05;;;16.60;99.90;;;;;;5063613;28;20106;-66
2023/10/04 11:58:52;;;;;;;15.43;4.15;;;16.60;99.90;;;;;;5062781;28;20494;-66
2023/10/04 12:01:23;;;;;;;12.40;3.67;;;16.60;99.90;;;;;;5063993;28;20059;-66
2023/10/04 12:03:50;;;;;;;18.75;4.13;;;16.60;99.90;;;;;;5064608;28;20037;-66
2023/10/04 12:06:27;;;;;;;16.90;3.58;;;16.60;99.90;;;;;;5060282;28;20131;-66
2023/10/04 12:08:54;;;;;;;12.40;3.47;;;16.60;99.90;;;;;;5046483;28;20032;-66
2023/10/04 12:11:25;;;;;;;9.48;3.22;;;16.60;99.90;;;;;;5062444;28;20044;-66
2023/10/04 12:13:52;;;;;;;11.70;3.28;;;16.70;99.90;;;;;;5063218;28;20044;-66
2023/10/04 12:16:18;;;;;;;11.57;2.97;;;16.70;99.90;;;;;;5065333;28;20441;-66
2023/10/04 12:18:45;;;;;;;15.45;3.30;;;16.60;99.90;;;;;;5063418;28;20050;-66
2023/10/04 12:21:12;;;;;;;12.82;3.45;;;16.70;99.90;;;;;;5045981;28;20074;-66
2023/10/04 12:23:38;;;;;;;12.73;3.20;;;16.70;99.90;;;;;;5065891;28;20638;-66
2023/10/04 12:26:04;;;;;;;13.90;3.33;;;16.70;99.90;;;;;;5064958;28;20055;-66
2023/10/04 12:28:30;;;;;;;12.85;3.33;;;16.70;99.90;;;;;;5064229;28;20516;-66
2023/10/04 12:31:02;;;;;;;9.65;2.97;;;16.70;99.90;;;;;;5065622;28;20036;-66
2023/10/04 12:33:34;;;;;;;13.77;3.83;;;16.70;99.90;;;;;;5065655;28;20432;-66
2023/10/04 12:36:00;;;;;;;10.43;3.05;;;16.80;99.90;;;;;;5067091;28;20681;-66
2023/10/04 12:38:26;;;;;;;19.73;4.13;;;16.70;99.90;;;;;;5064978;28;20113;-66
2023/10/04 12:40:52;;;;;;;11.30;2.97;;;16.80;99.90;;;;;;5048157;28;20447;-66
2023/10/04 12:43:18;;;;;;;13.68;3.13;;;16.80;99.90;;;;;;5066508;28;20135;-67
2023/10/04 12:45:46;;;;;;;8.50;2.88;;;16.80;99.90;;;;;;5066010;28;20052;-67